Time;durP1;ratioP1;P1;durP2;ratioP2;P2;SDS_P1;SDS_P2;PMS_P1;PMS_P2;Temp;Humidity;BMP_temperature;BMP_pressure;BME280_temperature;BME280_humidity;BME280_pressure;Samples;Min_cycle;Max_cycle;Signal;HPM_P1;HPM_P2
2022/10/06 00:00:00;;;;;;;;;;;;;;;;;;;;;
2022/10/06 00:02:28;;;;;;;0.00;0.00;;;;;;;;;;4974996;28;20240;-74
2022/10/06 00:04:56;;;;;;;0.00;0.00;;;;;;;;;;4972534;28;20813;-74
2022/10/06 00:07:23;;;;;;;0.00;0.00;;;;;;;;;;4955578;28;20250;-73
2022/10/06 00:09:50;;;;;;;0.00;0.00;;;;;;;;;;4971131;28;20292;-74
2022/10/06 00:12:19;;;;;;;0.00;0.00;;;;;;;;;;4969913;28;20265;-73
2022/10/06 00:14:46;;;;;;;0.00;0.00;;;;;;;;;;4954589;28;20206;-74
2022/10/06 00:17:14;;;;;;;0.00;0.00;;;;;;;;;;4951707;28;20226;-75
2022/10/06 00:19:42;;;;;;;0.00;0.00;;;;;;;;;;4966992;28;20218;-73
2022/10/06 00:22:09;;;;;;;0.00;0.00;;;;;;;;;;4954013;28;20217;-75
2022/10/06 00:24:36;;;;;;;0.00;0.00;;;;;;;;;;4967800;28;20304;-73
2022/10/06 00:27:04;;;;;;;0.00;0.00;;;;;;;;;;4955510;28;20222;-74
2022/10/06 00:29:33;;;;;;;0.00;0.00;;;;;;;;;;4953253;28;20206;-74
2022/10/06 00:32:00;;;;;;;0.00;0.00;;;;;;;;;;4951203;28;20218;-73
2022/10/06 00:34:28;;;;;;;0.00;0.00;;;;;;;;;;4967541;28;20203;-74
2022/10/06 00:36:56;;;;;;;0.00;0.00;;;;;;;;;;4951541;28;20222;-73
2022/10/06 00:39:25;;;;;;;0.00;0.00;;;;;;;;;;4968866;28;20675;-73
2022/10/06 00:41:53;;;;;;;0.00;0.00;;;;;;;;;;4970600;28;20194;-73
2022/10/06 00:44:20;;;;;;;0.00;0.00;;;;;;;;;;4954938;28;20202;-74
2022/10/06 00:46:50;;;;;;;0.00;0.00;;;;;;;;;;4955284;28;20284;-74
2022/10/06 00:49:21;;;;;;;0.00;0.00;;;;;;;;;;4967234;28;20208;-73
2022/10/06 00:51:49;;;;;;;0.00;0.00;;;;;;;;;;4967657;28;20304;-73
2022/10/06 00:54:18;;;;;;;0.00;0.00;;;;;;;;;;4970693;28;20292;-73
2022/10/06 00:56:46;;;;;;;0.00;0.00;;;;;;;;;;4958789;28;20826;-73
2022/10/06 00:59:14;;;;;;;0.00;0.00;;;;;;;;;;4968621;28;20751;-73
2022/10/06 01:01:44;;;;;;;0.00;0.00;;;;;;;;;;4967015;28;20321;-73
2022/10/06 01:04:16;;;;;;;0.00;0.00;;;;;;;;;;4952046;28;20293;-73
2022/10/06 01:06:45;;;;;;;0.00;0.00;;;;;;;;;;4953055;28;20222;-73
2022/10/06 01:09:14;;;;;;;0.00;0.00;;;;;;;;;;4901725;28;1463692;-73
2022/10/06 01:11:41;;;;;;;0.00;0.00;;;;;;;;;;4967386;28;20230;-73
2022/10/06 01:14:09;;;;;;;0.00;0.00;;;;;;;;;;4968790;28;20203;-71
2022/10/06 01:16:40;;;;;;;0.00;0.00;;;;;;;;;;4953278;28;20228;-70
2022/10/06 01:19:12;;;;;;;0.00;0.00;;;;;;;;;;4954683;28;20210;-70
2022/10/06 01:21:45;;;;;;;0.00;0.00;;;;;;;;;;4968481;28;20203;-69
2022/10/06 01:24:14;;;;;;;0.00;0.00;;;;;;;;;;4967716;28;20206;-71
2022/10/06 01:26:44;;;;;;;0.00;0.00;;;;;;;;;;4950257;28;20317;-70
2022/10/06 01:29:13;;;;;;;0.00;0.00;;;;;;;;;;4955563;28;20202;-73
2022/10/06 01:31:41;;;;;;;0.00;0.00;;;;;;;;;;4969313;28;20205;-73
2022/10/06 01:34:08;;;;;;;0.00;0.00;;;;;;;;;;4953906;28;20213;-73
2022/10/06 01:36:36;;;;;;;0.00;0.00;;;;;;;;;;4967239;28;20210;-71
2022/10/06 01:39:04;;;;;;;0.00;0.00;;;;;;;;;;4967777;28;20213;-69
2022/10/06 01:41:33;;;;;;;0.00;0.00;;;;;;;;;;4953581;28;20202;-70
2022/10/06 01:44:01;;;;;;;0.00;0.00;;;;;;;;;;4948545;28;20202;-69
2022/10/06 01:46:29;;;;;;;0.00;0.00;;;;;;;;;;4953418;28;20226;-71
2022/10/06 01:48:57;;;;;;;0.00;0.00;;;;;;;;;;4970054;28;20217;-70
2022/10/06 01:51:25;;;;;;;0.00;0.00;;;;;;;;;;4961829;28;20194;-69
2022/10/06 01:53:53;;;;;;;0.00;0.00;;;;;;;;;;4960063;28;20198;-70
2022/10/06 01:56:22;;;;;;;0.00;0.00;;;;;;;;;;4950247;28;20299;-69
2022/10/06 01:58:50;;;;;;;0.00;0.00;;;;;;;;;;4952089;28;20202;-70
2022/10/06 02:01:18;;;;;;;0.00;0.00;;;;;;;;;;4969322;28;20227;-71
2022/10/06 02:03:46;;;;;;;0.00;0.00;;;;;;;;;;4958320;28;20206;-71
2022/10/06 02:06:14;;;;;;;0.00;0.00;;;;;;;;;;4968776;28;20217;-73
2022/10/06 02:08:43;;;;;;;0.00;0.00;;;;;;;;;;4967571;28;20317;-73
2022/10/06 02:11:12;;;;;;;0.00;0.00;;;;;;;;;;4950378;28;20201;-73
2022/10/06 02:13:43;;;;;;;0.00;0.00;;;;;;;;;;4969529;28;20214;-72
2022/10/06 02:16:12;;;;;;;0.00;0.00;;;;;;;;;;4968645;28;20209;-72
2022/10/06 02:18:42;;;;;;;0.00;0.00;;;;;;;;;;4952419;28;20202;-71
2022/10/06 02:21:14;;;;;;;0.00;0.00;;;;;;;;;;4950292;28;20210;-72
2022/10/06 02:23:41;;;;;;;0.00;0.00;;;;;;;;;;4950323;28;20228;-71
2022/10/06 02:26:09;;;;;;;0.00;0.00;;;;;;;;;;4954590;28;20786;-72
2022/10/06 02:28:37;;;;;;;0.00;0.00;;;;;;;;;;4967495;28;20241;-71
2022/10/06 02:31:07;;;;;;;0.00;0.00;;;;;;;;;;4959304;28;20209;-71
2022/10/06 02:33:38;;;;;;;0.00;0.00;;;;;;;;;;4953843;28;20199;-71
2022/10/06 02:36:07;;;;;;;0.00;0.00;;;;;;;;;;4967553;28;20194;-71
2022/10/06 02:38:35;;;;;;;0.00;0.00;;;;;;;;;;4951631;28;20281;-71
2022/10/06 02:41:06;;;;;;;0.00;0.00;;;;;;;;;;4952708;28;20198;-71
2022/10/06 02:43:35;;;;;;;0.00;0.00;;;;;;;;;;4953859;28;20220;-72
2022/10/06 02:46:05;;;;;;;0.00;0.00;;;;;;;;;;4950303;28;20241;-71
2022/10/06 02:48:33;;;;;;;0.00;0.00;;;;;;;;;;4966207;28;20235;-71
2022/10/06 02:51:03;;;;;;;0.00;0.00;;;;;;;;;;4950546;28;20199;-71
2022/10/06 02:53:31;;;;;;;0.00;0.00;;;;;;;;;;4969834;28;20203;-71
2022/10/06 02:55:59;;;;;;;0.00;0.00;;;;;;;;;;4955075;28;20195;-72
2022/10/06 02:58:28;;;;;;;0.00;0.00;;;;;;;;;;4967156;28;20205;-71
2022/10/06 03:01:01;;;;;;;0.00;0.00;;;;;;;;;;4968132;28;20210;-72
2022/10/06 03:03:29;;;;;;;0.00;0.00;;;;;;;;;;4967644;28;20203;-70
2022/10/06 03:05:59;;;;;;;0.00;0.00;;;;;;;;;;4965290;28;20647;-71
2022/10/06 03:08:28;;;;;;;0.00;0.00;;;;;;;;;;4951583;28;20198;-75
2022/10/06 03:11:00;;;;;;;0.00;0.00;;;;;;;;;;4953628;28;20251;-74
2022/10/06 03:13:29;;;;;;;0.00;0.00;;;;;;;;;;4963575;28;20203;-75
2022/10/06 03:15:56;;;;;;;0.00;0.00;;;;;;;;;;4956190;28;20199;-74
2022/10/06 03:18:24;;;;;;;0.00;0.00;;;;;;;;;;4950455;28;20230;-73
2022/10/06 03:20:52;;;;;;;0.00;0.00;;;;;;;;;;4963592;28;20253;-73
2022/10/06 03:23:20;;;;;;;0.00;0.00;;;;;;;;;;4947687;28;20214;-73
2022/10/06 03:25:56;;;;;;;0.00;0.00;;;;;;;;;;4967756;28;20222;-74
2022/10/06 03:28:24;;;;;;;0.00;0.00;;;;;;;;;;4952338;28;20309;-74
2022/10/06 03:30:51;;;;;;;0.00;0.00;;;;;;;;;;4951019;28;20209;-74
2022/10/06 03:33:19;;;;;;;0.00;0.00;;;;;;;;;;4967882;28;20313;-75
2022/10/06 03:35:47;;;;;;;0.00;0.00;;;;;;;;;;4949278;28;20213;-74
2022/10/06 03:38:15;;;;;;;0.00;0.00;;;;;;;;;;4965926;28;20322;-72
2022/10/06 03:40:44;;;;;;;0.00;0.00;;;;;;;;;;4971128;28;20213;-72
2022/10/06 03:43:14;;;;;;;0.00;0.00;;;;;;;;;;4966565;28;20198;-71
2022/10/06 03:45:42;;;;;;;0.00;0.00;;;;;;;;;;4951183;28;20662;-70
2022/10/06 03:48:10;;;;;;;0.00;0.00;;;;;;;;;;4953493;28;20301;-69
2022/10/06 03:50:37;;;;;;;0.00;0.00;;;;;;;;;;4965099;28;20209;-70
2022/10/06 03:53:05;;;;;;;0.00;0.00;;;;;;;;;;4953783;28;20210;-70
2022/10/06 03:55:32;;;;;;;0.00;0.00;;;;;;;;;;4969450;28;20205;-72
2022/10/06 03:58:00;;;;;;;0.00;0.00;;;;;;;;;;4953704;28;20222;-71
2022/10/06 04:00:29;;;;;;;0.00;0.00;;;;;;;;;;4971764;28;20230;-69
2022/10/06 04:02:56;;;;;;;0.00;0.00;;;;;;;;;;4963558;28;20206;-69
2022/10/06 04:05:23;;;;;;;0.00;0.00;;;;;;;;;;4971117;28;20207;-72
2022/10/06 04:07:54;;;;;;;0.00;0.00;;;;;;;;;;4972429;28;20229;-72
2022/10/06 04:10:22;;;;;;;0.00;0.00;;;;;;;;;;4972439;28;20265;-71
2022/10/06 04:12:49;;;;;;;0.00;0.00;;;;;;;;;;4957307;28;20215;-71
2022/10/06 04:15:17;;;;;;;0.00;0.00;;;;;;;;;;4955210;28;20285;-71
2022/10/06 04:17:46;;;;;;;0.00;0.00;;;;;;;;;;4960420;28;20226;-71
2022/10/06 04:20:14;;;;;;;0.00;0.00;;;;;;;;;;4954265;28;20696;-71
2022/10/06 04:22:42;;;;;;;0.00;0.00;;;;;;;;;;4970222;28;20198;-72
2022/10/06 04:25:10;;;;;;;0.00;0.00;;;;;;;;;;4970546;28;20198;-72
2022/10/06 04:27:37;;;;;;;0.00;0.00;;;;;;;;;;4958009;28;20240;-71
2022/10/06 04:30:09;;;;;;;0.00;0.00;;;;;;;;;;4954788;28;20774;-72
2022/10/06 04:32:37;;;;;;;0.00;0.00;;;;;;;;;;4954170;28;20230;-68
2022/10/06 04:35:07;;;;;;;0.00;0.00;;;;;;;;;;4950356;28;20227;-70
2022/10/06 04:37:35;;;;;;;0.00;0.00;;;;;;;;;;4970000;28;20214;-67
2022/10/06 04:40:03;;;;;;;0.00;0.00;;;;;;;;;;4970847;28;20199;-70
2022/10/06 04:42:32;;;;;;;0.00;0.00;;;;;;;;;;4970193;28;20585;-70
2022/10/06 04:45:00;;;;;;;0.00;0.00;;;;;;;;;;4953478;28;20203;-71
2022/10/06 04:47:27;;;;;;;0.00;0.00;;;;;;;;;;4953427;28;20244;-70
2022/10/06 04:49:55;;;;;;;0.00;0.00;;;;;;;;;;4960461;28;20199;-68
2022/10/06 04:52:24;;;;;;;0.00;0.00;;;;;;;;;;4955321;28;20207;-70
2022/10/06 04:54:52;;;;;;;0.00;0.00;;;;;;;;;;4971242;28;20206;-70
2022/10/06 04:57:20;;;;;;;0.00;0.00;;;;;;;;;;4968057;28;20244;-70
2022/10/06 05:02:32;;;;;;;0.00;0.00;;;;;;;;;;4964050;28;20231;-70
2022/10/06 05:05:00;;;;;;;0.00;0.00;;;;;;;;;;4970283;28;20194;-71
2022/10/06 05:07:29;;;;;;;0.00;0.00;;;;;;;;;;4953125;28;20230;-70
2022/10/06 05:09:58;;;;;;;0.00;0.00;;;;;;;;;;4971258;28;20329;-68
2022/10/06 05:12:29;;;;;;;0.00;0.00;;;;;;;;;;4971563;28;20191;-70
2022/10/06 05:14:58;;;;;;;0.00;0.00;;;;;;;;;;4952796;28;20202;-73
2022/10/06 05:17:26;;;;;;;0.00;0.00;;;;;;;;;;4956633;28;20236;-68
2022/10/06 05:19:54;;;;;;;0.00;0.00;;;;;;;;;;4959160;28;20220;-69
2022/10/06 05:22:21;;;;;;;0.00;0.00;;;;;;;;;;4970895;28;20293;-70
2022/10/06 05:24:52;;;;;;;0.00;0.00;;;;;;;;;;4966835;28;20206;-69
2022/10/06 05:27:20;;;;;;;0.00;0.00;;;;;;;;;;4951464;28;20230;-70
2022/10/06 05:29:48;;;;;;;0.00;0.00;;;;;;;;;;4960615;28;20233;-72
2022/10/06 05:32:16;;;;;;;0.00;0.00;;;;;;;;;;4949919;28;20206;-68
2022/10/06 05:34:43;;;;;;;0.00;0.00;;;;;;;;;;4951423;28;20206;-73
2022/10/06 05:37:11;;;;;;;0.00;0.00;;;;;;;;;;4954190;28;20329;-70
2022/10/06 05:39:39;;;;;;;0.00;0.00;;;;;;;;;;4969364;28;20208;-69
2022/10/06 05:42:08;;;;;;;0.00;0.00;;;;;;;;;;4967635;28;20583;-69
2022/10/06 05:44:36;;;;;;;0.00;0.00;;;;;;;;;;4970796;28;20206;-68
2022/10/06 05:47:08;;;;;;;0.00;0.00;;;;;;;;;;4954267;28;20218;-69
2022/10/06 05:49:36;;;;;;;0.00;0.00;;;;;;;;;;4955669;28;20208;-72
2022/10/06 05:52:04;;;;;;;0.00;0.00;;;;;;;;;;4970075;28;20198;-70
2022/10/06 05:54:34;;;;;;;0.00;0.00;;;;;;;;;;4969857;28;20284;-70
2022/10/06 05:57:02;;;;;;;0.00;0.00;;;;;;;;;;4954128;28;20222;-69
2022/10/06 05:59:33;;;;;;;0.03;0.03;;;;;;;;;;4949637;28;20198;-70
2022/10/06 06:02:02;;;;;;;0.00;0.00;;;;;;;;;;4961322;28;20310;-70
2022/10/06 06:04:34;;;;;;;0.00;0.00;;;;;;;;;;4953930;28;20201;-69
2022/10/06 06:07:02;;;;;;;0.00;0.00;;;;;;;;;;4968785;28;20229;-70
2022/10/06 06:09:29;;;;;;;0.00;0.00;;;;;;;;;;4949935;28;20234;-70
2022/10/06 06:12:02;;;;;;;0.00;0.00;;;;;;;;;;4952504;28;20206;-70
2022/10/06 06:17:26;;;;;;;0.00;0.00;;;;;;;;;;4959145;28;20778;-71
2022/10/06 06:19:54;;;;;;;0.00;0.00;;;;;;;;;;4952856;28;20191;-70
2022/10/06 06:22:21;;;;;;;0.00;0.00;;;;;;;;;;4954307;28;20198;-68
2022/10/06 06:24:51;;;;;;;0.00;0.00;;;;;;;;;;4953430;28;20284;-70
2022/10/06 06:27:19;;;;;;;0.00;0.00;;;;;;;;;;4948318;28;20238;-70
2022/10/06 06:29:49;;;;;;;0.00;0.00;;;;;;;;;;4959290;28;20198;-70
2022/10/06 06:32:16;;;;;;;0.00;0.00;;;;;;;;;;4954008;28;20194;-69
2022/10/06 06:34:45;;;;;;;0.00;0.00;;;;;;;;;;4966929;28;20210;-68
2022/10/06 06:37:14;;;;;;;0.00;0.00;;;;;;;;;;4966011;28;20229;-70
2022/10/06 06:39:41;;;;;;;0.00;0.00;;;;;;;;;;4967232;28;20226;-68
2022/10/06 06:42:09;;;;;;;0.00;0.00;;;;;;;;;;4951923;28;20205;-71
2022/10/06 06:44:58;;;;;;;0.00;0.00;;;;;;;;;;4952610;28;20758;-70
2022/10/06 06:47:33;;;;;;;0.00;0.00;;;;;;;;;;4963151;28;20244;-70
2022/10/06 06:50:03;;;;;;;0.00;0.00;;;;;;;;;;4967401;28;20230;-70
2022/10/06 06:52:31;;;;;;;0.00;0.00;;;;;;;;;;4965036;28;20206;-69
2022/10/06 06:54:59;;;;;;;0.00;0.00;;;;;;;;;;4958632;28;20202;-70
2022/10/06 06:57:27;;;;;;;0.00;0.00;;;;;;;;;;4953881;28;20230;-70
2022/10/06 07:00:01;;;;;;;0.00;0.00;;;;;;;;;;4966112;28;20209;-69
2022/10/06 07:02:30;;;;;;;0.00;0.00;;;;;;;;;;4967189;28;20700;-69
2022/10/06 07:04:58;;;;;;;0.00;0.00;;;;;;;;;;4955617;28;20565;-69
2022/10/06 07:07:25;;;;;;;0.00;0.00;;;;;;;;;;4967232;28;20230;-70
2022/10/06 07:09:53;;;;;;;0.00;0.00;;;;;;;;;;4949153;28;20218;-70
2022/10/06 07:12:24;;;;;;;0.00;0.00;;;;;;;;;;4967346;28;20225;-70
2022/10/06 07:26:07;;;;;;;0.00;0.00;;;;;;;;;;4967987;28;20194;-70
2022/10/06 07:28:34;;;;;;;0.00;0.00;;;;;;;;;;4958737;28;20228;-71
2022/10/06 07:31:02;;;;;;;0.00;0.00;;;;;;;;;;4957097;28;20225;-72
2022/10/06 07:33:33;;;;;;;0.00;0.00;;;;;;;;;;4968337;28;20203;-70
2022/10/06 07:36:04;;;;;;;0.00;0.00;;;;;;;;;;4971413;28;20293;-69
2022/10/06 07:38:33;;;;;;;0.00;0.00;;;;;;;;;;4959403;28;20221;-69
2022/10/06 07:41:00;;;;;;;0.00;0.00;;;;;;;;;;4955323;28;20249;-70
2022/10/06 07:43:30;;;;;;;0.00;0.00;;;;;;;;;;4970108;28;20706;-71
2022/10/06 07:45:58;;;;;;;0.00;0.00;;;;;;;;;;4969671;28;20203;-70
2022/10/06 07:48:50;;;;;;;0.00;0.00;;;;;;;;;;4960271;28;20213;-69
2022/10/06 07:51:19;;;;;;;0.00;0.00;;;;;;;;;;4958003;28;20202;-70
2022/10/06 07:53:49;;;;;;;0.00;0.00;;;;;;;;;;4961849;28;20206;-71
2022/10/06 07:56:25;;;;;;;0.00;0.00;;;;;;;;;;4974451;28;20220;-70
2022/10/06 07:58:57;;;;;;;0.00;0.00;;;;;;;;;;4973857;28;20203;-70
2022/10/06 08:01:25;;;;;;;0.00;0.00;;;;;;;;;;4970060;28;20289;-69
2022/10/06 08:03:54;;;;;;;0.00;0.00;;;;;;;;;;4952621;28;20293;-71
2022/10/06 08:06:23;;;;;;;0.00;0.00;;;;;;;;;;4954456;28;20203;-70
2022/10/06 08:08:52;;;;;;;0.00;0.00;;;;;;;;;;4955848;28;20278;-70
2022/10/06 08:11:20;;;;;;;0.00;0.00;;;;;;;;;;4955850;28;20350;-69
2022/10/06 08:13:47;;;;;;;0.00;0.00;;;;;;;;;;4957712;28;20272;-70
2022/10/06 08:16:16;;;;;;;0.00;0.00;;;;;;;;;;4954607;28;20306;-70
2022/10/06 08:18:44;;;;;;;0.00;0.00;;;;;;;;;;4958403;28;20198;-71
2022/10/06 08:21:14;;;;;;;0.00;0.00;;;;;;;;;;4954807;28;20282;-68
2022/10/06 08:23:42;;;;;;;0.00;0.00;;;;;;;;;;4973949;28;20210;-70
2022/10/06 08:26:10;;;;;;;0.00;0.00;;;;;;;;;;4958012;28;20222;-70
2022/10/06 08:28:37;;;;;;;0.00;0.00;;;;;;;;;;4970091;28;20277;-71
2022/10/06 08:31:06;;;;;;;0.00;0.00;;;;;;;;;;4970828;28;20205;-70
2022/10/06 08:33:34;;;;;;;0.00;0.00;;;;;;;;;;4954304;28;20305;-70
2022/10/06 08:36:07;;;;;;;0.00;0.00;;;;;;;;;;4953904;28;20206;-71
2022/10/06 08:38:36;;;;;;;0.00;0.00;;;;;;;;;;4952929;28;20199;-70
2022/10/06 08:41:04;;;;;;;0.00;0.00;;;;;;;;;;4954636;28;21233;-73
2022/10/06 08:43:33;;;;;;;0.00;0.00;;;;;;;;;;4956016;28;20230;-69
2022/10/06 08:46:01;;;;;;;0.00;0.00;;;;;;;;;;4968737;28;20202;-71
2022/10/06 08:48:37;;;;;;;0.00;0.00;;;;;;;;;;4966389;28;20228;-69
2022/10/06 08:51:17;;;;;;;0.00;0.00;;;;;;;;;;4953430;28;20225;-72
2022/10/06 08:53:50;;;;;;;0.00;0.00;;;;;;;;;;4972006;28;20209;-70
2022/10/06 08:56:20;;;;;;;0.00;0.00;;;;;;;;;;4972716;28;20213;-70
2022/10/06 08:58:52;;;;;;;0.00;0.00;;;;;;;;;;4955005;28;20195;-71
2022/10/06 09:01:22;;;;;;;0.00;0.00;;;;;;;;;;4968995;28;20206;-71
2022/10/06 09:03:54;;;;;;;0.00;0.00;;;;;;;;;;4951443;28;20219;-71
2022/10/06 09:06:37;;;;;;;0.00;0.00;;;;;;;;;;4960857;28;20202;-70
2022/10/06 09:09:08;;;;;;;0.00;0.00;;;;;;;;;;4970774;28;20221;-71
2022/10/06 09:11:41;;;;;;;0.00;0.00;;;;;;;;;;4971459;28;20208;-70
2022/10/06 09:14:13;;;;;;;0.00;0.00;;;;;;;;;;4955120;28;20751;-71
2022/10/06 09:16:43;;;;;;;0.00;0.00;;;;;;;;;;4953191;28;20233;-71
2022/10/06 09:19:15;;;;;;;0.00;0.00;;;;;;;;;;4971508;28;20198;-71
2022/10/06 09:21:45;;;;;;;0.00;0.00;;;;;;;;;;4954101;28;20242;-70
2022/10/06 09:24:16;;;;;;;0.00;0.00;;;;;;;;;;4953522;28;20207;-71
2022/10/06 09:26:44;;;;;;;0.00;0.00;;;;;;;;;;4968454;28;20639;-71
2022/10/06 09:29:13;;;;;;;0.00;0.00;;;;;;;;;;4952438;28;20245;-71
2022/10/06 09:31:42;;;;;;;0.00;0.00;;;;;;;;;;4972245;28;20203;-71
2022/10/06 09:34:19;;;;;;;0.00;0.00;;;;;;;;;;4954299;28;20238;-71
2022/10/06 09:37:01;;;;;;;0.00;0.00;;;;;;;;;;4969027;28;20238;-70
2022/10/06 09:39:36;;;;;;;0.00;0.00;;;;;;;;;;4952618;28;20292;-76
2022/10/06 09:42:13;;;;;;;0.00;0.00;;;;;;;;;;4969882;28;20218;-73
2022/10/06 09:44:57;;;;;;;0.00;0.00;;;;;;;;;;4955944;28;20269;-73
2022/10/06 09:47:37;;;;;;;0.00;0.00;;;;;;;;;;4966974;28;20238;-74
2022/10/06 09:50:14;;;;;;;0.00;0.00;;;;;;;;;;4971691;28;20241;-74
2022/10/06 09:52:43;;;;;;;0.00;0.00;;;;;;;;;;4959909;28;20214;-73
2022/10/06 09:55:12;;;;;;;0.00;0.00;;;;;;;;;;4960798;28;20198;-74
2022/10/06 09:57:48;;;;;;;0.00;0.00;;;;;;;;;;4970965;28;20299;-74
2022/10/06 10:00:28;;;;;;;0.00;0.00;;;;;;;;;;4952739;28;20297;-74
2022/10/06 10:03:01;;;;;;;0.00;0.00;;;;;;;;;;4957073;28;20743;-75
2022/10/06 10:05:30;;;;;;;0.00;0.00;;;;;;;;;;4953414;28;20270;-74
2022/10/06 10:08:07;;;;;;;0.00;0.00;;;;;;;;;;4955073;28;20301;-74
2022/10/06 10:10:37;;;;;;;0.00;0.00;;;;;;;;;;4959886;28;20222;-74
2022/10/06 10:13:17;;;;;;;0.00;0.00;;;;;;;;;;4967218;28;20206;-74
2022/10/06 10:15:53;;;;;;;0.00;0.00;;;;;;;;;;4953926;28;20210;-74
2022/10/06 10:18:25;;;;;;;0.00;0.00;;;;;;;;;;4952584;28;20281;-73
2022/10/06 10:20:56;;;;;;;0.00;0.00;;;;;;;;;;4968894;28;20268;-73
2022/10/06 10:23:25;;;;;;;0.00;0.00;;;;;;;;;;4951532;28;20350;-75
2022/10/06 10:26:11;;;;;;;0.00;0.00;;;;;;;;;;4955178;28;20202;-75
2022/10/06 10:28:50;;;;;;;0.00;0.00;;;;;;;;;;4969325;28;20232;-73
2022/10/06 10:31:19;;;;;;;0.00;0.00;;;;;;;;;;4953655;28;20300;-73
2022/10/06 10:33:52;;;;;;;0.00;0.00;;;;;;;;;;4947461;28;20210;-75
2022/10/06 10:36:22;;;;;;;0.00;0.00;;;;;;;;;;4966655;28;20750;-74
2022/10/06 10:38:50;;;;;;;0.00;0.00;;;;;;;;;;4955045;28;20257;-74
2022/10/06 10:41:20;;;;;;;0.00;0.00;;;;;;;;;;4953553;28;20195;-75
2022/10/06 10:43:51;;;;;;;0.00;0.00;;;;;;;;;;4968536;28;20234;-73
2022/10/06 10:46:22;;;;;;;0.00;0.00;;;;;;;;;;4967282;28;20226;-73
2022/10/06 10:48:51;;;;;;;0.00;0.00;;;;;;;;;;4969847;28;20234;-74
2022/10/06 10:51:23;;;;;;;0.00;0.00;;;;;;;;;;4968909;28;20202;-73
2022/10/06 10:53:52;;;;;;;0.00;0.00;;;;;;;;;;4954132;28;20321;-74
2022/10/06 10:56:22;;;;;;;0.00;0.00;;;;;;;;;;4966590;28;20261;-75
2022/10/06 10:58:53;;;;;;;0.00;0.00;;;;;;;;;;4957074;28;20296;-76
2022/10/06 11:01:25;;;;;;;0.00;0.00;;;;;;;;;;4965264;28;20232;-74
2022/10/06 11:03:56;;;;;;;0.00;0.00;;;;;;;;;;4951467;28;20182;-74
2022/10/06 11:06:42;;;;;;;0.00;0.00;;;;;;;;;;4969001;28;20233;-74
2022/10/06 11:09:12;;;;;;;0.00;0.00;;;;;;;;;;4926921;28;20249;-74
2022/10/06 11:11:45;;;;;;;0.00;0.00;;;;;;;;;;4954365;28;20226;-74
2022/10/06 11:14:23;;;;;;;0.00;0.00;;;;;;;;;;4948858;28;20210;-74
2022/10/06 11:16:53;;;;;;;0.00;0.00;;;;;;;;;;4970197;28;20230;-74
2022/10/06 11:19:26;;;;;;;0.00;0.00;;;;;;;;;;4951045;28;20912;-73
2022/10/06 11:21:58;;;;;;;0.00;0.00;;;;;;;;;;4950493;28;20206;-74
2022/10/06 11:24:31;;;;;;;0.00;0.00;;;;;;;;;;4967507;28;20225;-74
2022/10/06 11:27:06;;;;;;;0.00;0.00;;;;;;;;;;4959493;28;20260;-74
2022/10/06 11:29:41;;;;;;;0.00;0.00;;;;;;;;;;4951622;28;20211;-74
2022/10/06 11:32:15;;;;;;;0.00;0.00;;;;;;;;;;4966338;28;20210;-76
2022/10/06 11:34:43;;;;;;;0.00;0.00;;;;;;;;;;4964698;28;20298;-74
2022/10/06 11:37:17;;;;;;;0.00;0.00;;;;;;;;;;4965719;28;20244;-74
2022/10/06 11:39:50;;;;;;;0.00;0.00;;;;;;;;;;4950144;28;20222;-74
2022/10/06 11:42:22;;;;;;;0.00;0.00;;;;;;;;;;4963121;28;20306;-74
2022/10/06 11:44:53;;;;;;;0.00;0.00;;;;;;;;;;4952135;28;20213;-73
2022/10/06 11:47:23;;;;;;;0.00;0.00;;;;;;;;;;4950078;28;20273;-77
2022/10/06 11:49:52;;;;;;;0.00;0.00;;;;;;;;;;4952790;28;20233;-74
2022/10/06 11:52:36;;;;;;;0.00;0.00;;;;;;;;;;4968640;28;20213;-74
2022/10/06 11:55:13;;;;;;;0.00;0.00;;;;;;;;;;4956863;28;20205;-74
2022/10/06 11:57:55;;;;;;;0.00;0.00;;;;;;;;;;4951397;28;20218;-73
2022/10/06 12:00:44;;;;;;;0.00;0.00;;;;;;;;;;4959548;28;20206;-74
2022/10/06 12:03:44;;;;;;;0.00;0.00;;;;;;;;;;4954151;28;20296;-74
2022/10/06 12:06:27;;;;;;;0.00;0.00;;;;;;;;;;4968061;28;20569;-74
2022/10/06 12:08:55;;;;;;;0.00;0.00;;;;;;;;;;4970277;28;20723;-76
2022/10/06 12:11:38;;;;;;;0.00;0.00;;;;;;;;;;4956375;28;20230;-75
2022/10/06 12:14:10;;;;;;;0.00;0.00;;;;;;;;;;4972551;28;20216;-74
2022/10/06 12:16:39;;;;;;;0.00;0.00;;;;;;;;;;4955648;28;20222;-74
2022/10/06 12:19:18;;;;;;;0.00;0.00;;;;;;;;;;4971476;28;20205;-74
2022/10/06 12:21:49;;;;;;;0.00;0.00;;;;;;;;;;4952831;28;20209;-74
2022/10/06 12:24:21;;;;;;;0.00;0.00;;;;;;;;;;4972787;28;20205;-74
2022/10/06 12:26:52;;;;;;;0.00;0.00;;;;;;;;;;4970288;28;20227;-74
2022/10/06 12:29:38;;;;;;;0.00;0.00;;;;;;;;;;4970138;28;20289;-73
2022/10/06 12:32:12;;;;;;;0.00;0.00;;;;;;;;;;4972068;28;20206;-73
2022/10/06 12:34:56;;;;;;;0.00;0.00;;;;;;;;;;4968531;28;20296;-73
2022/10/06 12:37:35;;;;;;;0.00;0.00;;;;;;;;;;4953549;28;20222;-73
2022/10/06 12:40:22;;;;;;;0.00;0.00;;;;;;;;;;4968560;28;20211;-73
2022/10/06 12:42:49;;;;;;;0.00;0.00;;;;;;;;;;4973541;28;20297;-73
2022/10/06 12:45:17;;;;;;;0.00;0.00;;;;;;;;;;4971504;28;20202;-73
2022/10/06 12:47:46;;;;;;;0.00;0.00;;;;;;;;;;4951096;28;20274;-73
2022/10/06 12:50:17;;;;;;;0.00;0.00;;;;;;;;;;4970299;28;20222;-72
2022/10/06 12:52:47;;;;;;;0.00;0.00;;;;;;;;;;4956899;28;20207;-73
2022/10/06 12:55:26;;;;;;;0.00;0.00;;;;;;;;;;4969711;28;20293;-74
2022/10/06 12:57:54;;;;;;;0.00;0.00;;;;;;;;;;4969846;28;20222;-73
2022/10/06 13:00:22;;;;;;;0.00;0.00;;;;;;;;;;4972131;28;20206;-73
2022/10/06 13:02:59;;;;;;;0.00;0.00;;;;;;;;;;4967092;28;20207;-72
2022/10/06 13:05:28;;;;;;;0.00;0.00;;;;;;;;;;4971173;28;20244;-72
2022/10/06 13:07:57;;;;;;;0.00;0.00;;;;;;;;;;4952427;28;20226;-73
2022/10/06 13:10:24;;;;;;;0.00;0.00;;;;;;;;;;4954095;28;20793;-72
2022/10/06 13:12:54;;;;;;;0.00;0.00;;;;;;;;;;4955974;28;20201;-73
2022/10/06 13:15:23;;;;;;;0.00;0.00;;;;;;;;;;4954411;28;20206;-73
2022/10/06 13:17:52;;;;;;;0.00;0.00;;;;;;;;;;4967408;28;20237;-72
2022/10/06 13:20:22;;;;;;;0.00;0.00;;;;;;;;;;4969096;28;20210;-73
2022/10/06 13:22:57;;;;;;;0.00;0.00;;;;;;;;;;4951080;28;20296;-73
2022/10/06 13:25:25;;;;;;;0.00;0.00;;;;;;;;;;4953670;28;20205;-73
2022/10/06 13:27:53;;;;;;;0.00;0.00;;;;;;;;;;4967967;28;20770;-73
2022/10/06 13:30:21;;;;;;;0.00;0.00;;;;;;;;;;4968768;28;20233;-73
2022/10/06 13:32:55;;;;;;;0.00;0.00;;;;;;;;;;4959708;28;20349;-73
2022/10/06 13:35:27;;;;;;;0.00;0.00;;;;;;;;;;4952871;28;20202;-74
2022/10/06 13:37:56;;;;;;;0.00;0.00;;;;;;;;;;4960240;28;20223;-73
2022/10/06 13:40:30;;;;;;;0.00;0.00;;;;;;;;;;4956494;28;20193;-73
2022/10/06 13:42:57;;;;;;;0.00;0.00;;;;;;;;;;4968002;28;20214;-72
2022/10/06 13:45:25;;;;;;;0.00;0.00;;;;;;;;;;4954646;28;20227;-72
2022/10/06 13:48:03;;;;;;;0.00;0.00;;;;;;;;;;4952776;28;20313;-72
2022/10/06 13:50:31;;;;;;;0.00;0.00;;;;;;;;;;4951899;28;20300;-73
2022/10/06 13:53:00;;;;;;;0.00;0.00;;;;;;;;;;4954159;28;20193;-74
2022/10/06 13:55:30;;;;;;;0.00;0.00;;;;;;;;;;4966519;28;20213;-74
2022/10/06 13:58:15;;;;;;;0.00;0.00;;;;;;;;;;4953059;28;20232;-73
2022/10/06 14:00:47;;;;;;;0.00;0.00;;;;;;;;;;4954111;28;20234;-73
2022/10/06 14:03:21;;;;;;;0.00;0.00;;;;;;;;;;4960916;28;20211;-73
2022/10/06 14:05:48;;;;;;;0.00;0.00;;;;;;;;;;4966721;28;20281;-74
2022/10/06 14:08:22;;;;;;;0.00;0.00;;;;;;;;;;4955770;28;20214;-73
2022/10/06 14:10:51;;;;;;;0.00;0.00;;;;;;;;;;4968601;28;20308;-74
2022/10/06 14:13:20;;;;;;;0.00;0.00;;;;;;;;;;4956351;28;20218;-73
2022/10/06 14:15:49;;;;;;;0.00;0.00;;;;;;;;;;4951179;28;20218;-73
2022/10/06 14:18:18;;;;;;;0.00;0.00;;;;;;;;;;4968768;28;20329;-73
2022/10/06 14:20:46;;;;;;;0.00;0.00;;;;;;;;;;4967067;28;20203;-73
2022/10/06 14:23:35;;;;;;;0.00;0.00;;;;;;;;;;4953116;28;20225;-73
2022/10/06 14:26:02;;;;;;;0.00;0.00;;;;;;;;;;4964543;28;20214;-73
2022/10/06 14:28:30;;;;;;;0.00;0.00;;;;;;;;;;4950450;28;20203;-73
2022/10/06 14:30:58;;;;;;;0.00;0.00;;;;;;;;;;4954140;28;20285;-73
2022/10/06 14:33:26;;;;;;;0.00;0.00;;;;;;;;;;4966780;28;20202;-73
2022/10/06 14:35:53;;;;;;;0.00;0.00;;;;;;;;;;4954586;28;20195;-73
2022/10/06 14:38:21;;;;;;;0.00;0.00;;;;;;;;;;4953460;28;20237;-73
2022/10/06 14:40:50;;;;;;;0.00;0.00;;;;;;;;;;4955938;28;20569;-73
2022/10/06 14:43:18;;;;;;;0.00;0.00;;;;;;;;;;4951865;28;20253;-73
2022/10/06 14:45:45;;;;;;;0.00;0.00;;;;;;;;;;4969355;28;20225;-73
2022/10/06 14:48:14;;;;;;;0.00;0.00;;;;;;;;;;4968038;28;20222;-72
2022/10/06 14:50:43;;;;;;;0.00;0.00;;;;;;;;;;4952654;28;20715;-73
2022/10/06 14:53:13;;;;;;;0.00;0.00;;;;;;;;;;4969917;28;20213;-73
2022/10/06 14:55:40;;;;;;;0.00;0.00;;;;;;;;;;4951548;28;20569;-72
2022/10/06 14:58:09;;;;;;;0.00;0.00;;;;;;;;;;4947039;28;20337;-73
2022/10/06 15:00:39;;;;;;;0.00;0.00;;;;;;;;;;4965576;28;20214;-72
2022/10/06 15:03:06;;;;;;;0.00;0.00;;;;;;;;;;4952539;28;20217;-72
2022/10/06 15:08:08;;;;;;;0.00;0.00;;;;;;;;;;4968099;28;20300;-72
2022/10/06 15:08:20;;;;;;;0.00;0.00;;;;;;;;;;4960130;28;20260;-72
2022/10/06 15:10:51;;;;;;;0.00;0.00;;;;;;;;;;4960115;28;20222;-72
2022/10/06 15:13:20;;;;;;;0.00;0.00;;;;;;;;;;4970789;28;20213;-73
2022/10/06 15:15:49;;;;;;;0.00;0.00;;;;;;;;;;4955499;28;20216;-72
2022/10/06 15:18:17;;;;;;;0.00;0.00;;;;;;;;;;4953325;28;20253;-72